Casper, WY

4:57 AM MDT on September 02, 2014 (GMT -0600)
North of Casper, WY | Change Station
CLOSE
Current Station
Personal Weather Station
Location: Bar Nunn, WY
Elevation: 5276 ft
Nearby Weather Stations
Active Advisory: Fire Weather Warning

Elev 5276 ft 42.91 °N, 106.35 °W | Updated 2 minutes ago

Clear
Clear
37.5 °F
Feels Like 38 °F
N
0.0
Wind Variable Wind from NNE
Gusts 0.0 mph

Today
High -- | Low -- °F
--% Chance of Precip.
Yesterday
High -- | Low -- °F
Precip. -- in
6:31 AM 7:37 PM
Waxing Crescent, 50% visible
Pressure 29.96 in
Visibility 10.0 miles
Clouds Clear
Windchill 38 °F
Dew Point 34 °F
Humidity 88%
Rainfall 0.00 in
Snow Depth 1 in
UV 0 out of 12
Pollen 7.60 out of 12
Air Quality Not available.
Flu Activity Not available.
METAR KCPR 021053Z 00000KT 10SM CLR 02/01 A3006 RMK AO2 SLP145 T00170006

More Conditions Fewer Conditions

Pressure 29.96 in
Visibility 10.0 miles
Clouds Clear
Windchill 38 °F
Dew Point 34 °F
Humidity 88%
Rainfall 0.00 in
Snow Depth 1 in
UV 0 out of 12
Pollen 7.60 out of 12
Air Quality Not available.
Flu Activity Not available.
METAR KCPR 021053Z 00000KT 10SM CLR 02/01 A3006 RMK AO2 SLP145 T00170006

More Conditions Fewer Conditions

10-Day Weather Forecast

Almanac

Astronomy

Sep. 02, 2014 Rise Set
Actual Time 6:31 AM MDT 7:37 PM MDT
Civil Twilight 6:01 AM MDT 8:06 PM MDT
Nautical Twilight 5:27 AM MDT 8:41 PM MDT
Astronomical Twilight 4:50 AM MDT 9:17 PM MDT
Moon 2:28 PM MDT No Moon Set
Length of Visible Light 14h 05m
Length of Day
13h 06m
Tomorrow will be 2m 47s shorter.
Waxing Crescent, 50% of the Moon is Illuminated
Today
Waxing Crescent
Sep 2
First Quarter
Sep 8
Full
Sep 15
Last Quarter
Sep 24
New

Today's Extremes

State Highs State Lows

Community

WunderPhotos

Upload Photos

1,749,611 photos uploaded!

WunderBlogs® & News

Nearby

Snow Depth

Station Depth Elevation
Casper Mountain 1 in 7850 ft
Reno Hill 0 in 8500 ft
Grave Springs 0 in 8550 ft
Middle Powder 0 in 7760 ft
Bear Trap Meadow 0 in 8200 ft

Earthquake Activity

City Distance Mag. Time & Date
No recent earthquake activity has been reported nearby.
Minimum magnitude displayed is 2.5.

Coastal Water Temperatures

Place Temperature
No Stations Reporting

Nearby Weather Stations